EGXU - Linton-On-Ouse
Distance from station: E 5mi, 14km
Updated: 10/16/2017 11:50pm
Mostly Cloudy
Mostly Cloudy
 Wind from WSW
Wind: WSW 23 mph , 37 km/h, Gust: 36 mph , 57 km/h
Temperature: 55°F , 13°C
Dew Point: 43°F , 6°C
Humidity: 63%
Barometer: 29.83 inHg , 1010 hPa
Clouds: Mostly Cloudy
Visibility: 6 miles , 10 km
Cloud details: Mostly Cloudy 3300 ft
Mostly Cloudy 4100 ft
2017/10/17 06:50 EGXU 170650Z AUTO 24020G31KT 9999 // BKN033/// BKN041/// 13/06 Q1010